KBCT/BCT METAR and TAF weather

Enter ICAO airport designator
Station Type Date Time Source
KBCT METAR 2019/04/18 19:47 UTC NOAA

KBCT 181947Z 12010G18KT 100V200 10SM SCT023 31/22 A2998


Station Type Date Time Source
KBCT Decoded METAR 2019/04/18 19:47 UTC NOAA

Boca Raton, Boca Raton Airport, FL, United States (KBCT) 26-22-43N 080-06-28W
Apr 18, 2019 - 03:47 PM EDT / 2019.04.18 1947 UTC
Wind: from the ESE (120 degrees) at 12 MPH (10 KT) gusting to 21 MPH (18 KT) (direction variable):0
Visibility: 10 mile(s):0
Sky conditions: partly cloudy
Temperature: 87 F (31 C)
Heat index: 92.3 F (33.5 C):1
Dew Point: 71 F (22 C)
Relative Humidity: 58%
Pressure (altimeter): 29.98 in. Hg (1015 hPa)
ob: KBCT 181947Z 12010G18KT 100V200 10SM SCT023 31/22 A2998
cycle: 20

Station Type Date Time Source
KBCT TAF UTC NOAA

Error!

Example: see airport list